createdAt,value
2023-01-27T00:00:06.288Z,79.37
2023-01-27T00:00:39.190Z,79.42
2023-01-27T00:01:14.824Z,79.53
2023-01-27T00:01:46.481Z,79.42
2023-01-27T00:02:20.562Z,79.63
2023-01-27T00:02:52.814Z,79.81
2023-01-27T00:03:25.374Z,79.57
2023-01-27T00:03:57.162Z,79.34
2023-01-27T00:04:28.889Z,79.66
2023-01-27T00:05:01.955Z,79.05
2023-01-27T00:05:39.022Z,79.53
2023-01-27T00:06:12.203Z,79.68
2023-01-27T00:06:43.857Z,79.34
2023-01-27T00:07:15.570Z,79.59
2023-01-27T00:07:48.052Z,79.49
2023-01-27T00:08:19.776Z,79.46
2023-01-27T00:08:51.452Z,79.38
2023-01-27T00:09:23.116Z,79.52
2023-01-27T00:09:54.746Z,79.42
2023-01-27T00:10:27.503Z,79.37
2023-01-27T00:11:19.424Z,79.44
2023-01-27T00:12:11.752Z,79.31
2023-01-27T00:13:03.786Z,79.77
2023-01-27T00:13:36.702Z,79.62
2023-01-27T00:14:11.224Z,79.98
2023-01-27T00:14:42.887Z,80.00
2023-01-27T00:15:16.046Z,80.16
2023-01-27T00:15:47.829Z,80.42
2023-01-27T00:16:21.699Z,80.21
2023-01-27T00:16:53.512Z,80.13
2023-01-27T00:17:25.136Z,80.22
2023-01-27T00:17:56.810Z,80.21
2023-01-27T00:18:28.480Z,80.43
2023-01-27T00:19:00.098Z,80.13
2023-01-27T00:19:31.754Z,80.06
2023-01-27T00:20:05.127Z,80.00
2023-01-27T00:20:55.458Z,80.32
2023-01-27T00:21:45.945Z,80.02
2023-01-27T00:22:38.450Z,80.21
2023-01-27T00:23:37.902Z,80.05
2023-01-27T00:24:31.763Z,80.52
2023-01-27T00:25:03.565Z,80.47
2023-01-27T00:25:35.172Z,80.65
2023-01-27T00:26:09.795Z,80.54
2023-01-27T00:26:41.551Z,80.90
2023-01-27T00:27:20.658Z,80.58
2023-01-27T00:27:52.274Z,80.67
2023-01-27T00:28:25.556Z,80.68
2023-01-27T00:28:57.240Z,80.89
2023-01-27T00:29:28.915Z,80.67
2023-01-27T00:30:00.576Z,80.76
2023-01-27T00:30:34.505Z,80.86
2023-01-27T00:31:26.651Z,80.75
2023-01-27T00:32:16.865Z,80.73
2023-01-27T00:33:07.214Z,80.99
2023-01-27T00:33:38.849Z,80.74
2023-01-27T00:34:12.582Z,81.04
2023-01-27T00:34:44.273Z,80.90
2023-01-27T00:35:16.706Z,81.54
2023-01-27T00:35:48.352Z,81.03
2023-01-27T00:36:20.000Z,80.86
2023-01-27T00:36:54.478Z,80.52
2023-01-27T00:37:26.151Z,80.55
2023-01-27T00:37:57.827Z,81.22
2023-01-27T00:38:31.870Z,80.75
2023-01-27T00:39:04.284Z,81.09
2023-01-27T00:39:35.951Z,80.83
2023-01-27T00:40:08.023Z,80.70
2023-01-27T00:40:39.669Z,81.20
2023-01-27T00:41:20.122Z,80.75
2023-01-27T00:41:51.787Z,80.73
2023-01-27T00:42:23.448Z,80.78
2023-01-27T00:42:55.118Z,81.04
2023-01-27T00:43:26.767Z,80.88
2023-01-27T00:43:58.460Z,80.59
2023-01-27T00:44:30.124Z,80.78
2023-01-27T00:45:20.254Z,80.60
2023-01-27T00:45:52.672Z,80.51
2023-01-27T00:46:25.455Z,80.86
2023-01-27T00:47:01.120Z,80.63
2023-01-27T00:47:33.626Z,80.58
2023-01-27T00:48:05.776Z,80.67
2023-01-27T00:48:37.481Z,80.40
2023-01-27T00:49:10.598Z,80.54
2023-01-27T00:49:42.230Z,80.72
2023-01-27T00:50:14.181Z,80.67
2023-01-27T00:50:46.046Z,80.63
2023-01-27T00:51:18.442Z,80.42
2023-01-27T00:51:52.949Z,80.47
2023-01-27T00:52:24.689Z,80.43
2023-01-27T00:53:01.065Z,80.77
2023-01-27T00:53:34.450Z,80.38
2023-01-27T00:54:06.214Z,81.18
2023-01-27T00:54:37.848Z,80.96
2023-01-27T00:55:15.433Z,80.69
2023-01-27T00:55:47.573Z,81.30
2023-01-27T00:56:19.340Z,80.81
2023-01-27T00:56:51.755Z,80.52
2023-01-27T00:57:23.392Z,80.59
2023-01-27T00:57:55.082Z,80.35
2023-01-27T00:58:27.956Z,80.57
2023-01-27T00:59:00.098Z,80.74
2023-01-27T00:59:31.811Z,81.21
2023-01-27T01:00:07.524Z,80.85
2023-01-27T01:00:39.404Z,80.45
2023-01-27T01:01:13.913Z,80.57
2023-01-27T01:01:47.914Z,80.82
2023-01-27T01:02:19.672Z,80.52
2023-01-27T01:02:54.211Z,80.90
2023-01-27T01:03:31.181Z,80.89
2023-01-27T01:04:02.899Z,80.83
2023-01-27T01:04:34.597Z,80.64
2023-01-27T01:05:06.413Z,80.64
2023-01-27T01:05:38.039Z,80.63
2023-01-27T01:06:13.024Z,80.99
2023-01-27T01:06:44.693Z,80.71
2023-01-27T01:07:26.108Z,80.07
2023-01-27T01:07:57.775Z,80.73
2023-01-27T01:08:34.279Z,80.77
2023-01-27T01:09:05.919Z,80.95
2023-01-27T01:09:37.657Z,80.67
2023-01-27T01:10:10.238Z,80.90
2023-01-27T01:10:42.375Z,80.43
2023-01-27T01:11:16.703Z,80.63
2023-01-27T01:11:48.377Z,80.47
2023-01-27T01:12:20.006Z,80.35
2023-01-27T01:12:51.697Z,79.96
2023-01-27T01:13:23.367Z,79.58
2023-01-27T01:13:56.711Z,80.01
2023-01-27T01:14:28.538Z,79.94
2023-01-27T01:15:00.158Z,79.28
2023-01-27T01:15:38.379Z,79.66
2023-01-27T01:16:30.107Z,79.82
2023-01-27T01:17:01.799Z,80.40
2023-01-27T01:17:33.442Z,80.14
2023-01-27T01:18:06.120Z,80.13
2023-01-27T01:18:41.079Z,80.08
2023-01-27T01:19:14.893Z,80.52
2023-01-27T01:19:46.609Z,80.33
2023-01-27T01:20:18.335Z,80.61
2023-01-27T01:20:52.616Z,80.40
2023-01-27T01:21:24.259Z,80.70
2023-01-27T01:21:55.951Z,80.53
2023-01-27T01:22:27.603Z,80.98
2023-01-27T01:22:59.246Z,80.58
2023-01-27T01:23:33.361Z,80.92
2023-01-27T01:24:06.066Z,80.29
2023-01-27T01:24:37.799Z,80.59
2023-01-27T01:25:11.868Z,80.58
2023-01-27T01:25:43.671Z,80.61
2023-01-27T01:26:17.201Z,80.66
2023-01-27T01:26:49.026Z,80.41
2023-01-27T01:27:20.787Z,80.52
2023-01-27T01:27:54.767Z,80.85
2023-01-27T01:28:26.638Z,80.93
2023-01-27T01:28:58.370Z,80.81
2023-01-27T01:29:37.616Z,80.41
2023-01-27T01:30:10.144Z,80.66
2023-01-27T01:30:42.032Z,80.50
2023-01-27T01:31:17.191Z,80.75
2023-01-27T01:31:54.118Z,80.57
2023-01-27T01:32:27.794Z,80.42
2023-01-27T01:32:59.461Z,80.77
2023-01-27T01:33:31.121Z,80.59
2023-01-27T01:34:02.771Z,81.18
2023-01-27T01:34:34.451Z,80.78
2023-01-27T01:35:06.454Z,80.73
2023-01-27T01:35:42.855Z,80.98
2023-01-27T01:36:18.503Z,80.92
2023-01-27T01:36:50.173Z,80.96
2023-01-27T01:37:21.863Z,81.13
2023-01-27T01:37:54.608Z,80.98
2023-01-27T01:38:26.254Z,81.24
2023-01-27T01:38:58.329Z,81.03
2023-01-27T01:40:17.419Z,81.11
2023-01-27T01:40:49.049Z,81.35
2023-01-27T01:41:22.925Z,81.33
2023-01-27T01:41:54.555Z,80.92
2023-01-27T01:42:26.264Z,80.94
2023-01-27T01:43:00.994Z,80.94
2023-01-27T01:43:35.247Z,81.21
2023-01-27T01:44:28.278Z,80.79
2023-01-27T01:45:34.093Z,80.87
2023-01-27T01:46:10.326Z,81.08
2023-01-27T01:46:42.203Z,81.07
2023-01-27T01:47:17.730Z,81.00
2023-01-27T01:47:49.399Z,81.25
2023-01-27T01:48:58.541Z,81.24
2023-01-27T01:49:36.960Z,81.20
2023-01-27T01:50:11.356Z,81.05
2023-01-27T01:50:52.357Z,80.96
2023-01-27T01:51:29.323Z,80.92
2023-01-27T01:52:09.387Z,80.95
2023-01-27T01:52:41.031Z,81.03
2023-01-27T01:53:15.899Z,80.92
2023-01-27T01:53:58.322Z,81.05
2023-01-27T01:54:40.668Z,81.24
2023-01-27T01:55:13.091Z,80.89
2023-01-27T01:55:50.124Z,81.17
2023-01-27T01:56:38.831Z,80.76
2023-01-27T01:57:29.674Z,80.87
2023-01-27T01:58:02.590Z,80.87
2023-01-27T01:58:35.746Z,80.81
2023-01-27T01:59:17.423Z,81.05
2023-01-27T01:59:56.540Z,80.71
2023-01-27T02:00:28.222Z,80.82
2023-01-27T02:00:59.983Z,80.70
2023-01-27T02:01:33.736Z,80.86
2023-01-27T02:02:12.065Z,81.20
2023-01-27T02:02:44.993Z,81.32
2023-01-27T02:03:16.922Z,81.09
2023-01-27T02:03:56.370Z,81.46
2023-01-27T02:04:36.823Z,81.34
2023-01-27T02:05:21.510Z,81.07
2023-01-27T02:05:54.622Z,81.13
2023-01-27T02:06:26.622Z,81.10
2023-01-27T02:07:30.501Z,81.37
2023-01-27T02:08:08.260Z,81.15
2023-01-27T02:08:44.792Z,81.19
2023-01-27T02:09:18.330Z,81.28
2023-01-27T02:09:50.006Z,81.39
2023-01-27T02:10:26.045Z,81.20
2023-01-27T02:10:58.457Z,81.38
2023-01-27T02:11:30.256Z,81.54
2023-01-27T02:12:05.005Z,81.33
2023-01-27T02:12:43.760Z,81.45
2023-01-27T02:13:15.426Z,81.36
2023-01-27T02:13:47.640Z,81.90
2023-01-27T02:14:19.435Z,81.60
2023-01-27T02:14:51.096Z,81.43
2023-01-27T02:15:22.900Z,81.47
2023-01-27T02:15:55.845Z,81.66
2023-01-27T02:16:27.705Z,82.03
2023-01-27T02:16:59.650Z,81.60
2023-01-27T02:17:31.346Z,81.50
2023-01-27T02:18:06.545Z,81.89
2023-01-27T02:18:41.416Z,81.96
2023-01-27T02:19:25.024Z,81.67
2023-01-27T02:20:17.079Z,82.12
2023-01-27T02:20:56.282Z,82.41
2023-01-27T02:21:30.121Z,82.24
2023-01-27T02:22:06.326Z,82.32
2023-01-27T02:22:47.111Z,82.46
2023-01-27T02:23:35.999Z,82.58
2023-01-27T02:24:12.463Z,82.34
2023-01-27T02:24:50.356Z,82.90
2023-01-27T02:25:34.222Z,82.61
2023-01-27T02:26:05.814Z,82.57
2023-01-27T02:26:42.595Z,82.96
2023-01-27T02:27:14.392Z,82.98
2023-01-27T02:27:48.062Z,82.92
2023-01-27T02:28:19.782Z,83.08
2023-01-27T02:29:00.397Z,82.53
2023-01-27T02:29:32.049Z,82.98
2023-01-27T02:30:03.904Z,82.94
2023-01-27T02:30:37.771Z,83.10
2023-01-27T02:31:18.709Z,83.17
2023-01-27T02:31:50.437Z,83.02
2023-01-27T02:32:27.044Z,83.06
2023-01-27T02:32:58.793Z,82.89
2023-01-27T02:33:30.639Z,82.97
2023-01-27T02:34:07.716Z,82.99
2023-01-27T02:34:39.387Z,83.83
2023-01-27T02:35:17.380Z,83.49
2023-01-27T02:35:59.276Z,83.29
2023-01-27T02:36:37.387Z,83.14
2023-01-27T02:37:10.849Z,83.42
2023-01-27T02:37:43.213Z,83.63
2023-01-27T02:38:21.402Z,83.86
2023-01-27T02:38:56.856Z,83.73
2023-01-27T02:39:43.466Z,83.76
2023-01-27T02:40:16.858Z,83.80
2023-01-27T02:40:53.925Z,83.44
2023-01-27T02:41:43.955Z,83.44
2023-01-27T02:42:20.225Z,83.27
2023-01-27T02:42:59.422Z,83.10
2023-01-27T02:43:32.618Z,83.44
2023-01-27T02:44:04.435Z,83.52
2023-01-27T02:44:36.567Z,83.67
2023-01-27T02:45:08.701Z,83.81
2023-01-27T02:45:40.515Z,83.52
2023-01-27T02:46:14.526Z,83.67
2023-01-27T02:46:46.900Z,83.43
2023-01-27T02:47:18.540Z,83.78
2023-01-27T02:47:50.214Z,83.31
2023-01-27T02:48:21.918Z,83.59
2023-01-27T02:49:01.157Z,83.33
2023-01-27T02:49:35.443Z,83.21
2023-01-27T02:50:07.486Z,83.47
2023-01-27T02:50:39.138Z,83.50
2023-01-27T02:51:11.261Z,83.13
2023-01-27T02:51:42.990Z,83.24
2023-01-27T02:52:15.886Z,83.16
2023-01-27T02:52:56.106Z,83.06
2023-01-27T02:53:27.843Z,83.30
2023-01-27T02:53:59.518Z,83.05
2023-01-27T02:54:31.379Z,83.11
2023-01-27T02:55:03.094Z,82.69
2023-01-27T02:55:34.821Z,83.12
2023-01-27T02:56:06.854Z,83.30
2023-01-27T02:56:39.671Z,82.96
2023-01-27T02:57:11.441Z,82.84
2023-01-27T02:57:43.078Z,82.76
2023-01-27T02:58:16.417Z,82.80
2023-01-27T02:58:48.066Z,82.77
2023-01-27T02:59:19.887Z,82.21
2023-01-27T02:59:51.538Z,82.31
2023-01-27T03:00:23.313Z,82.62
2023-01-27T03:00:54.972Z,82.67
2023-01-27T03:01:26.826Z,82.57
2023-01-27T03:01:58.566Z,82.31
2023-01-27T03:02:33.145Z,82.28
2023-01-27T03:03:04.790Z,82.25
2023-01-27T03:03:36.454Z,82.10
2023-01-27T03:04:09.250Z,82.35
2023-01-27T03:04:40.988Z,82.26
2023-01-27T03:05:13.500Z,82.42
2023-01-27T03:05:46.277Z,82.79
2023-01-27T03:06:19.319Z,82.21
2023-01-27T03:06:50.968Z,82.40
2023-01-27T03:07:25.335Z,82.26
2023-01-27T03:07:57.015Z,82.42
2023-01-27T03:08:28.654Z,82.69
2023-01-27T03:09:00.268Z,82.16
2023-01-27T03:09:31.905Z,82.65
2023-01-27T03:10:04.035Z,82.37
2023-01-27T03:10:38.565Z,82.45
2023-01-27T03:11:11.400Z,82.06
2023-01-27T03:12:01.706Z,82.25
2023-01-27T03:12:33.339Z,82.66
2023-01-27T03:13:05.579Z,82.96
2023-01-27T03:13:37.679Z,82.90
2023-01-27T03:14:09.807Z,82.27
2023-01-27T03:15:00.044Z,82.37
2023-01-27T03:15:50.543Z,82.92
2023-01-27T03:16:40.423Z,82.40
2023-01-27T03:17:33.701Z,83.13
2023-01-27T03:18:09.736Z,83.00
2023-01-27T03:18:41.397Z,83.25
2023-01-27T03:19:13.082Z,83.20
2023-01-27T03:19:45.916Z,82.54
2023-01-27T03:20:18.155Z,83.25
2023-01-27T03:20:49.955Z,83.19
2023-01-27T03:21:21.699Z,83.11
2023-01-27T03:21:54.411Z,83.44
2023-01-27T03:22:26.380Z,82.97
2023-01-27T03:22:58.083Z,83.05
2023-01-27T03:23:31.691Z,83.61
2023-01-27T03:24:03.679Z,83.49
2023-01-27T03:24:36.534Z,83.35
2023-01-27T03:25:09.546Z,83.51
2023-01-27T03:25:46.304Z,84.02
2023-01-27T03:26:17.919Z,83.82
2023-01-27T03:26:49.595Z,83.81
2023-01-27T03:27:21.708Z,84.62
2023-01-27T03:27:53.334Z,84.58
2023-01-27T03:28:25.007Z,84.19
2023-01-27T03:29:14.847Z,84.25
2023-01-27T03:30:02.920Z,84.89
2023-01-27T03:30:34.607Z,84.49
2023-01-27T03:31:22.379Z,84.74
2023-01-27T03:31:54.181Z,84.71
2023-01-27T03:32:28.643Z,85.25
2023-01-27T03:33:00.439Z,84.45
2023-01-27T03:33:32.249Z,84.74
2023-01-27T03:34:03.917Z,84.34
2023-01-27T03:34:35.589Z,85.14
2023-01-27T03:35:07.756Z,84.55
2023-01-27T03:35:39.813Z,84.60
2023-01-27T03:36:30.476Z,85.26
2023-01-27T03:37:20.577Z,85.18
2023-01-27T03:38:11.176Z,85.20
2023-01-27T03:39:03.273Z,84.86
2023-01-27T03:39:53.411Z,84.62
2023-01-27T03:40:44.147Z,84.48
2023-01-27T03:41:34.749Z,85.14
2023-01-27T03:42:24.664Z,84.94
2023-01-27T03:43:14.709Z,84.39
2023-01-27T03:44:05.013Z,84.42
2023-01-27T03:44:55.094Z,84.45
2023-01-27T03:45:45.567Z,84.65
2023-01-27T03:46:20.154Z,84.73
2023-01-27T03:46:51.859Z,85.09
2023-01-27T03:47:24.133Z,85.08
2023-01-27T03:47:58.335Z,84.67
2023-01-27T03:48:36.545Z,84.89
2023-01-27T03:49:08.205Z,84.92
2023-01-27T03:49:41.928Z,84.82
2023-01-27T03:50:16.221Z,84.85
2023-01-27T03:50:53.256Z,85.43
2023-01-27T03:51:26.628Z,85.22
2023-01-27T03:52:01.340Z,85.59
2023-01-27T03:52:33.135Z,84.74
2023-01-27T03:53:05.789Z,84.94
2023-01-27T03:53:37.835Z,85.32
2023-01-27T03:54:09.930Z,84.74
2023-01-27T03:54:43.917Z,84.94
2023-01-27T03:55:15.804Z,84.89
2023-01-27T03:55:47.949Z,85.07
2023-01-27T03:56:21.371Z,85.50
2023-01-27T03:56:53.005Z,85.56
2023-01-27T03:57:24.632Z,84.75
2023-01-27T03:57:57.067Z,85.71
2023-01-27T03:58:31.646Z,84.87
2023-01-27T03:59:04.088Z,85.49
2023-01-27T03:59:36.023Z,85.09
2023-01-27T04:00:09.385Z,84.78
2023-01-27T04:00:48.815Z,84.77
2023-01-27T04:01:23.754Z,85.16
2023-01-27T04:02:17.238Z,84.76
2023-01-27T04:03:07.471Z,85.02
2023-01-27T04:03:58.252Z,84.59
2023-01-27T04:04:49.616Z,84.85
2023-01-27T04:05:39.443Z,85.06
2023-01-27T04:06:33.393Z,85.38
2023-01-27T04:07:05.048Z,85.11
2023-01-27T04:07:39.271Z,85.08
2023-01-27T04:08:10.985Z,85.08
2023-01-27T04:08:43.664Z,84.79
2023-01-27T04:09:36.340Z,85.44
2023-01-27T04:10:08.607Z,84.96
2023-01-27T04:10:40.272Z,85.19
2023-01-27T04:11:31.832Z,85.31
2023-01-27T04:12:05.912Z,84.73
2023-01-27T04:12:37.580Z,84.88
2023-01-27T04:13:09.269Z,85.35
2023-01-27T04:13:40.937Z,85.08
2023-01-27T04:14:12.948Z,85.07
2023-01-27T04:14:44.696Z,84.95
2023-01-27T04:15:17.473Z,85.11
2023-01-27T04:15:54.034Z,84.90
2023-01-27T04:16:28.965Z,84.95
2023-01-27T04:17:04.536Z,84.79
2023-01-27T04:17:39.020Z,85.05
2023-01-27T04:18:10.754Z,84.60
2023-01-27T04:18:42.459Z,84.91
2023-01-27T04:19:16.023Z,84.57
2023-01-27T04:19:47.771Z,85.10
2023-01-27T04:20:20.711Z,84.85
2023-01-27T04:20:52.355Z,84.98
2023-01-27T04:21:25.620Z,84.63
2023-01-27T04:21:59.581Z,84.27
2023-01-27T04:22:34.332Z,84.35
2023-01-27T04:23:05.969Z,84.82
2023-01-27T04:23:37.624Z,84.33
2023-01-27T04:24:17.472Z,84.28
2023-01-27T04:24:50.231Z,84.74
2023-01-27T04:25:21.890Z,84.99
2023-01-27T04:25:54.372Z,85.12
2023-01-27T04:26:33.037Z,84.36
2023-01-27T04:27:11.126Z,84.90
2023-01-27T04:27:47.718Z,84.73
2023-01-27T04:28:37.327Z,84.57
2023-01-27T04:29:13.778Z,84.82
2023-01-27T04:29:45.420Z,84.56
2023-01-27T04:30:17.341Z,84.29
2023-01-27T04:30:54.176Z,84.38
2023-01-27T04:31:26.254Z,84.46
2023-01-27T04:31:58.502Z,84.53
2023-01-27T04:32:30.767Z,84.24
2023-01-27T04:33:04.739Z,84.60
2023-01-27T04:33:36.584Z,84.09
2023-01-27T04:34:10.320Z,84.53
2023-01-27T04:34:42.680Z,83.91
2023-01-27T04:35:14.713Z,84.38
2023-01-27T04:35:46.629Z,83.89
2023-01-27T04:36:18.621Z,84.47
2023-01-27T04:36:50.604Z,84.03
2023-01-27T04:37:22.239Z,83.67
2023-01-27T04:37:54.099Z,84.05
2023-01-27T04:38:25.733Z,84.40
2023-01-27T04:38:57.374Z,83.76
2023-01-27T04:39:29.632Z,83.69
2023-01-27T04:40:01.277Z,84.07
2023-01-27T04:40:32.926Z,83.82
2023-01-27T04:41:06.968Z,83.53
2023-01-27T04:41:38.643Z,83.88
2023-01-27T04:42:17.484Z,84.00
2023-01-27T04:42:49.283Z,83.62
2023-01-27T04:43:20.986Z,83.50
2023-01-27T04:43:52.773Z,83.69
2023-01-27T04:44:25.059Z,83.60
2023-01-27T04:44:56.712Z,83.40
2023-01-27T04:45:28.522Z,83.29
2023-01-27T04:46:00.231Z,83.34
2023-01-27T04:46:32.369Z,83.79
2023-01-27T04:47:04.030Z,83.42
2023-01-27T04:47:37.714Z,83.04
2023-01-27T04:48:09.439Z,83.35
2023-01-27T04:48:41.471Z,83.23
2023-01-27T04:49:13.211Z,83.12
2023-01-27T04:49:44.857Z,83.58
2023-01-27T04:50:16.796Z,83.91
2023-01-27T04:50:50.831Z,83.79
2023-01-27T04:51:23.053Z,83.24
2023-01-27T04:51:55.699Z,83.51
2023-01-27T04:52:30.842Z,83.14
2023-01-27T04:53:09.679Z,83.22
2023-01-27T04:53:41.370Z,83.34
2023-01-27T04:54:15.937Z,83.52
2023-01-27T04:54:47.612Z,83.63
2023-01-27T04:55:19.233Z,83.27
2023-01-27T04:55:50.929Z,83.43
2023-01-27T04:56:53.798Z,83.48
2023-01-27T04:57:26.976Z,83.84
2023-01-27T04:58:02.377Z,83.90
2023-01-27T04:58:35.859Z,84.16
2023-01-27T04:59:12.279Z,83.80
2023-01-27T04:59:43.927Z,83.72
2023-01-27T05:00:18.294Z,83.72
2023-01-27T05:00:49.941Z,83.81
2023-01-27T05:01:24.031Z,83.73
2023-01-27T05:02:05.386Z,83.62
2023-01-27T05:02:37.132Z,83.88
2023-01-27T05:03:10.287Z,83.90
2023-01-27T05:03:41.993Z,83.95
2023-01-27T05:04:14.777Z,83.88
2023-01-27T05:04:47.551Z,83.72
2023-01-27T05:05:19.191Z,83.69
2023-01-27T05:05:51.708Z,83.51
2023-01-27T05:06:24.173Z,83.97
2023-01-27T05:06:58.129Z,83.95
2023-01-27T05:07:32.274Z,83.35
2023-01-27T05:08:09.771Z,83.38
2023-01-27T05:08:41.532Z,83.68
2023-01-27T05:09:13.218Z,83.22
2023-01-27T05:09:44.962Z,83.80
2023-01-27T05:10:19.964Z,83.92
2023-01-27T05:10:52.949Z,83.75
2023-01-27T05:11:24.615Z,83.84
2023-01-27T05:11:56.287Z,83.01
2023-01-27T05:12:27.890Z,83.54
2023-01-27T05:13:01.306Z,83.70
2023-01-27T05:13:33.549Z,83.28
2023-01-27T05:14:07.777Z,83.18
2023-01-27T05:14:39.430Z,83.84
2023-01-27T05:15:13.873Z,83.35
2023-01-27T05:15:53.188Z,83.37
2023-01-27T05:16:25.606Z,83.96
2023-01-27T05:16:58.536Z,83.89
2023-01-27T05:17:36.096Z,83.59
2023-01-27T05:18:07.821Z,83.90
2023-01-27T05:18:41.237Z,83.79
2023-01-27T05:19:12.990Z,83.26
2023-01-27T05:19:44.642Z,83.88
2023-01-27T05:20:17.851Z,84.03
2023-01-27T05:20:51.428Z,83.65
2023-01-27T05:21:28.446Z,84.06
2023-01-27T05:22:00.109Z,84.04
2023-01-27T05:22:31.740Z,84.01
2023-01-27T05:23:24.002Z,83.97
2023-01-27T05:23:55.761Z,84.16
2023-01-27T05:24:27.446Z,83.71
2023-01-27T05:25:01.202Z,84.22
2023-01-27T05:25:32.972Z,84.00
2023-01-27T05:26:04.762Z,84.01
2023-01-27T05:26:38.668Z,83.92
2023-01-27T05:27:10.332Z,84.31
2023-01-27T05:27:42.018Z,84.39
2023-01-27T05:28:15.974Z,84.06
2023-01-27T05:28:51.773Z,84.04
2023-01-27T05:29:23.763Z,84.42
2023-01-27T05:29:57.547Z,84.18
2023-01-27T05:30:29.186Z,84.61
2023-01-27T05:31:10.510Z,84.65
2023-01-27T05:31:42.385Z,84.74
2023-01-27T05:32:14.070Z,84.01
2023-01-27T05:32:47.060Z,84.21
2023-01-27T05:33:18.708Z,84.49
2023-01-27T05:33:52.777Z,84.48
2023-01-27T05:34:24.481Z,84.85
2023-01-27T05:34:58.117Z,84.81
2023-01-27T05:35:36.145Z,85.06
2023-01-27T05:36:09.826Z,84.28
2023-01-27T05:36:44.111Z,84.60
2023-01-27T05:37:15.746Z,84.77
2023-01-27T05:37:47.408Z,84.32
2023-01-27T05:38:19.040Z,84.49
2023-01-27T05:38:52.661Z,84.47
2023-01-27T05:39:24.334Z,84.74
2023-01-27T05:39:56.239Z,84.69
2023-01-27T05:40:35.433Z,84.77
2023-01-27T05:41:08.724Z,84.48
2023-01-27T05:41:40.382Z,85.04
2023-01-27T05:42:12.044Z,84.87
2023-01-27T05:42:43.653Z,84.78
2023-01-27T05:43:15.328Z,84.39
2023-01-27T05:43:51.588Z,84.57
2023-01-27T05:44:23.242Z,84.73
2023-01-27T05:45:03.562Z,84.67
2023-01-27T05:45:36.204Z,84.21
2023-01-27T05:46:11.814Z,84.38
2023-01-27T05:46:43.567Z,84.65
2023-01-27T05:47:15.212Z,84.89
2023-01-27T05:47:51.509Z,84.53
2023-01-27T05:48:23.240Z,84.14
2023-01-27T05:48:57.095Z,83.85
2023-01-27T05:49:30.718Z,84.29
2023-01-27T05:50:02.334Z,89.53
2023-01-27T05:50:33.945Z,92.55
2023-01-27T05:51:06.654Z,93.33
2023-01-27T05:51:40.434Z,92.28
2023-01-27T05:52:12.046Z,89.23
2023-01-27T05:52:43.738Z,87.10
2023-01-27T05:53:15.401Z,85.82
2023-01-27T05:53:50.172Z,85.10
2023-01-27T05:54:21.869Z,84.24
2023-01-27T05:54:53.520Z,84.72
2023-01-27T05:55:27.509Z,84.59
2023-01-27T05:55:59.730Z,84.56
2023-01-27T05:56:32.065Z,84.02
2023-01-27T05:57:03.741Z,83.92
2023-01-27T05:57:42.768Z,83.90
2023-01-27T05:58:22.789Z,84.04
2023-01-27T05:58:56.369Z,84.29
2023-01-27T05:59:28.058Z,84.33
2023-01-27T05:59:59.677Z,84.24
2023-01-27T06:00:31.587Z,83.94
2023-01-27T06:01:14.074Z,84.63
2023-01-27T06:01:45.802Z,83.83
2023-01-27T06:02:17.548Z,84.23
2023-01-27T06:02:49.240Z,83.59
2023-01-27T06:03:21.518Z,83.84
2023-01-27T06:03:53.474Z,83.72
2023-01-27T06:04:26.705Z,83.60
2023-01-27T06:04:58.349Z,84.56
2023-01-27T06:05:30.141Z,84.39
2023-01-27T06:06:01.941Z,83.84
2023-01-27T06:06:37.554Z,84.52
2023-01-27T06:07:09.187Z,84.58
2023-01-27T06:07:40.846Z,84.22
2023-01-27T06:08:12.505Z,84.29
2023-01-27T06:08:45.645Z,84.92
2023-01-27T06:09:17.382Z,84.93
2023-01-27T06:09:49.136Z,84.93
2023-01-27T06:10:20.779Z,85.08
2023-01-27T06:10:53.718Z,84.66
2023-01-27T06:11:26.147Z,84.24
2023-01-27T06:12:03.041Z,89.02
2023-01-27T06:12:38.360Z,92.42
2023-01-27T06:13:10.049Z,92.91
2023-01-27T06:13:44.155Z,89.00
2023-01-27T06:14:16.011Z,86.95
2023-01-27T06:14:47.697Z,85.66
2023-01-27T06:15:19.340Z,85.44
2023-01-27T06:15:51.556Z,85.60
2023-01-27T06:16:23.892Z,84.96
2023-01-27T06:16:55.615Z,85.42
2023-01-27T06:17:27.260Z,84.66
2023-01-27T06:17:58.909Z,84.66
2023-01-27T06:18:30.693Z,85.27
2023-01-27T06:19:02.528Z,84.82
2023-01-27T06:19:34.160Z,84.68
2023-01-27T06:20:08.991Z,85.24
2023-01-27T06:20:41.654Z,85.34
2023-01-27T06:21:17.683Z,85.49
2023-01-27T06:21:49.315Z,84.74
2023-01-27T06:22:20.965Z,84.57
2023-01-27T06:22:52.610Z,84.95
2023-01-27T06:23:24.995Z,85.06
2023-01-27T06:23:58.199Z,89.77
2023-01-27T06:24:32.096Z,86.76
2023-01-27T06:25:03.895Z,86.25
2023-01-27T06:25:40.297Z,85.96
2023-01-27T06:26:18.325Z,85.37
2023-01-27T06:26:49.981Z,84.80
2023-01-27T06:27:21.639Z,84.75
2023-01-27T06:27:57.525Z,84.94
2023-01-27T06:28:30.076Z,84.58
2023-01-27T06:29:02.198Z,84.68
2023-01-27T06:29:33.865Z,85.14
2023-01-27T06:30:06.081Z,84.64
2023-01-27T06:30:39.748Z,84.82
2023-01-27T06:31:14.892Z,84.74
2023-01-27T06:31:46.654Z,84.67
2023-01-27T06:32:18.369Z,85.06
2023-01-27T06:32:50.035Z,85.77
2023-01-27T06:33:21.648Z,91.42
2023-01-27T06:33:53.502Z,94.36
2023-01-27T06:34:25.611Z,95.43
2023-01-27T06:34:57.255Z,94.88
2023-01-27T06:35:29.570Z,89.34
2023-01-27T06:36:08.472Z,86.26
2023-01-27T06:36:40.087Z,85.19
2023-01-27T06:37:11.731Z,84.78
2023-01-27T06:37:43.477Z,85.01
2023-01-27T06:38:17.864Z,84.95
2023-01-27T06:38:50.623Z,84.42
2023-01-27T06:39:22.349Z,84.93
2023-01-27T06:39:53.955Z,85.73
2023-01-27T06:40:27.140Z,89.68
2023-01-27T06:41:02.025Z,90.75
2023-01-27T06:41:33.732Z,94.14
2023-01-27T06:42:07.455Z,95.81
2023-01-27T06:42:43.643Z,97.72
2023-01-27T06:43:15.283Z,98.14
2023-01-27T06:43:46.932Z,98.56
2023-01-27T06:44:18.560Z,97.10
2023-01-27T06:44:50.228Z,90.89
2023-01-27T06:45:22.332Z,86.44
2023-01-27T06:45:54.255Z,84.14
2023-01-27T06:46:25.940Z,83.65
2023-01-27T06:47:00.582Z,83.93
2023-01-27T06:47:32.356Z,83.74
2023-01-27T06:48:04.230Z,83.28
2023-01-27T06:48:40.085Z,84.10
2023-01-27T06:49:14.175Z,83.17
2023-01-27T06:49:45.808Z,83.35
2023-01-27T06:50:17.488Z,83.51
2023-01-27T06:50:49.354Z,84.33
2023-01-27T06:51:20.971Z,84.46
2023-01-27T06:51:52.610Z,84.28
2023-01-27T06:52:26.614Z,84.32
2023-01-27T06:53:05.848Z,84.54
2023-01-27T06:53:47.736Z,84.56
2023-01-27T06:54:19.451Z,84.89
2023-01-27T06:54:51.217Z,84.60
2023-01-27T06:55:24.279Z,84.19
2023-01-27T06:56:00.522Z,84.47
2023-01-27T06:56:35.073Z,84.17
2023-01-27T06:57:11.667Z,84.49
2023-01-27T06:57:47.190Z,84.50
2023-01-27T06:58:18.845Z,84.66
2023-01-27T06:58:54.766Z,84.79
2023-01-27T06:59:26.490Z,84.04
2023-01-27T06:59:58.171Z,84.45
2023-01-27T07:00:30.427Z,83.94
2023-01-27T07:01:05.309Z,84.67
2023-01-27T07:01:37.244Z,84.16
2023-01-27T07:02:12.294Z,84.57
2023-01-27T07:02:46.473Z,84.55
2023-01-27T07:03:18.389Z,84.59
2023-01-27T07:03:50.033Z,84.12
2023-01-27T07:04:25.143Z,84.05
2023-01-27T07:04:56.828Z,84.13
2023-01-27T07:05:28.517Z,84.46
2023-01-27T07:06:00.198Z,84.58
2023-01-27T07:06:31.895Z,85.08
2023-01-27T07:07:05.282Z,84.94
2023-01-27T07:07:37.644Z,84.76
2023-01-27T07:08:49.706Z,85.01
2023-01-27T07:09:23.328Z,84.23
2023-01-27T07:09:54.952Z,86.53
2023-01-27T07:10:27.739Z,91.69
2023-01-27T07:11:02.502Z,93.78
2023-01-27T07:11:34.150Z,94.63
2023-01-27T07:12:05.909Z,95.68
2023-01-27T07:12:40.645Z,95.58
2023-01-27T07:13:14.116Z,91.55
2023-01-27T07:13:45.742Z,86.75
2023-01-27T07:14:19.915Z,85.56
2023-01-27T07:14:51.548Z,84.41
2023-01-27T07:15:23.188Z,84.62
2023-01-27T07:15:56.368Z,83.92
2023-01-27T07:16:28.124Z,84.24
2023-01-27T07:17:01.300Z,86.96
2023-01-27T07:17:33.371Z,90.99
2023-01-27T07:18:05.415Z,90.36
2023-01-27T07:18:37.081Z,93.84
2023-01-27T07:19:11.078Z,96.17
2023-01-27T07:19:46.887Z,97.44
2023-01-27T07:20:18.564Z,97.96
2023-01-27T07:20:50.202Z,98.26
2023-01-27T07:21:21.899Z,94.20
2023-01-27T07:21:53.542Z,87.23
2023-01-27T07:22:27.115Z,85.02
2023-01-27T07:23:00.347Z,84.48
2023-01-27T07:23:33.152Z,83.75
2023-01-27T07:24:05.768Z,83.90
2023-01-27T07:24:48.663Z,83.73
2023-01-27T07:25:20.305Z,83.43
2023-01-27T07:25:54.423Z,83.45
2023-01-27T07:26:26.104Z,83.44